Airfield :
LOGIN :

Register | Disclaimer

   EN    FR    IT 

 










Legend :    VFR   Marginal VFR   IFR   Intensive IFR   Very Intensive IFR
Visi :
Ceiling :
>= 8 km
>= 3000ft
5 to 8 km
1000 to 3000 ft
1500m to 5 km
500 to 1000 ft
800 to 1500m
200 to 500 ft
< 800m
< 200 ft
Symbols :   Thunderstorms  Fog  Heavy snow  Heavy precipitations  Wind > 20 kt
SIGMETs :     Misc.  Thunderstorms  Icing  Turbulence  Mountain Waves  Volcanic Ashes






- Airport Elevation : 992 ft


LIRV - Roma Viterbo Air Force Base (military)

CURRENT METAR :
  • 281455Z 35007KT 9999 SCT030 23/06 Q1022 RMK BKN SCT120 MON E SE LIB NC VIS MIN 9999 WIND THR04 ///// KT BLU

EXPIRED METARs :
  • 281355Z 05008KT 9999 SCT030 23/06 Q1023 RMK BKN BKN120 MON E SE LIB NC VIS MIN 9999 WIND THR04 ///// KT BLU
  • 281255Z 05006KT 9999 FEW030 22/06 Q1023 RMK BKN BKN100 MON E SE LIB NC VIS MIN 9999 WIND THR04 ///// KT BLU

TAF TAF LIRV
Valid from the 28 at 15:00 until the 29 at 00:00 UTC


281400Z 2815/2824 05010KT 9999 SCT030
BECMG 2817/2819 VRB03KT



MET'MAP, your aeronautical weather chart ! - Copyright ORBIFLY December 2007 - Disclaimer

ORBIFLY MET'MAP TEAM :

Programming & Development : Alexandra Zaïnal
Concept & original design : Baudouin d'Aumeries
Assistance for programming : Marc-Olivier Méhu
Technical & hardware support : Manuel Goepfert

Contact : metmap@orbifly.com




SOURCES & CREDITS :

   NOAA